createdAt,value
2018-09-01T00:01:44.817Z,11.30
2018-09-01T00:04:11.984Z,10.53
2018-09-01T00:06:39.129Z,9.73
2018-09-01T00:09:06.824Z,9.80
2018-09-01T00:11:34.096Z,9.67
2018-09-01T00:14:01.241Z,8.83
2018-09-01T00:16:28.440Z,9.83
2018-09-01T00:18:55.577Z,10.43
2018-09-01T00:21:22.775Z,9.07
2018-09-01T00:23:50.009Z,9.40
2018-09-01T00:26:17.137Z,9.53
2018-09-01T00:28:44.392Z,9.73
2018-09-01T00:31:11.716Z,9.60
2018-09-01T00:33:38.856Z,9.90
2018-09-01T00:36:06.076Z,9.50
2018-09-01T00:39:08.478Z,10.60
2018-09-01T00:41:36.075Z,11.07
2018-09-01T00:44:03.331Z,10.00
2018-09-01T00:46:30.897Z,10.77
2018-09-01T00:48:58.244Z,10.17
2018-09-01T00:51:25.521Z,10.40
2018-09-01T00:53:52.780Z,10.00
2018-09-01T00:56:19.992Z,9.73
2018-09-01T00:58:47.296Z,8.90
2018-09-01T01:01:14.434Z,9.20
2018-09-01T01:03:41.688Z,8.50
2018-09-01T01:06:08.829Z,9.67
2018-09-01T01:08:35.930Z,9.07
2018-09-01T01:11:03.236Z,10.30
2018-09-01T01:13:30.345Z,10.00
2018-09-01T01:15:57.483Z,8.50
2018-09-01T01:18:24.589Z,9.53
2018-09-01T01:20:52.012Z,11.27
2018-09-01T01:23:19.285Z,9.10
2018-09-01T01:25:46.571Z,9.53
2018-09-01T01:28:13.676Z,9.73
2018-09-01T01:30:40.815Z,8.53
2018-09-01T01:33:07.981Z,9.40
2018-09-01T01:35:35.101Z,8.63
2018-09-01T01:38:02.219Z,9.07
2018-09-01T01:40:29.352Z,6.57
2018-09-01T01:42:56.480Z,8.03
2018-09-01T01:45:23.652Z,7.20
2018-09-01T01:47:50.794Z,8.00
2018-09-01T01:50:18.141Z,6.67
2018-09-01T01:52:45.399Z,8.37
2018-09-01T01:55:12.504Z,7.53
2018-09-01T01:57:45.477Z,7.40
2018-09-01T02:00:12.642Z,7.20
2018-09-01T02:02:39.828Z,6.80
2018-09-01T02:05:08.904Z,5.90
2018-09-01T02:07:36.080Z,6.07
2018-09-01T02:10:03.497Z,6.30
2018-09-01T02:12:30.669Z,6.57
2018-09-01T02:14:57.806Z,6.80
2018-09-01T02:17:25.023Z,6.33
2018-09-01T02:19:52.188Z,7.00
2018-09-01T02:22:19.293Z,5.73
2018-09-01T02:24:46.621Z,5.47
2018-09-01T02:27:13.777Z,5.90
2018-09-01T02:29:40.919Z,6.27
2018-09-01T02:32:08.069Z,5.70
2018-09-01T02:34:35.185Z,5.23
2018-09-01T02:37:02.408Z,5.07
2018-09-01T02:39:29.517Z,5.00
2018-09-01T02:41:56.677Z,4.80
2018-09-01T02:44:23.821Z,3.87
2018-09-01T02:46:51.014Z,4.87
2018-09-01T02:49:18.137Z,5.33
2018-09-01T02:51:45.533Z,4.80
2018-09-01T02:54:12.824Z,5.17
2018-09-01T02:56:39.964Z,4.37
2018-09-01T02:59:07.154Z,5.03
2018-09-01T03:01:36.340Z,4.70
2018-09-01T03:04:04.157Z,3.83
2018-09-01T03:06:43.073Z,4.33
2018-09-01T03:09:10.297Z,5.00
2018-09-01T03:11:37.491Z,3.93
2018-09-01T03:14:04.678Z,4.10
2018-09-01T03:16:31.786Z,5.00
2018-09-01T03:18:58.964Z,4.30
2018-09-01T03:21:26.133Z,4.67
2018-09-01T03:23:53.272Z,4.10
2018-09-01T03:26:20.571Z,5.30
2018-09-01T03:28:47.721Z,5.17
2018-09-01T03:31:14.896Z,4.50
2018-09-01T03:33:42.048Z,4.80
2018-09-01T03:36:09.173Z,4.97
2018-09-01T03:38:36.434Z,4.93
2018-09-01T03:41:03.628Z,4.90
2018-09-01T03:43:30.749Z,4.40
2018-09-01T03:45:57.987Z,4.70
2018-09-01T03:48:25.221Z,4.83
2018-09-01T03:50:52.328Z,5.20
2018-09-01T03:53:19.632Z,4.90
2018-09-01T03:55:46.810Z,4.97
2018-09-01T03:58:14.014Z,5.53
2018-09-01T04:00:41.341Z,5.33
2018-09-01T04:03:08.464Z,5.23
2018-09-01T04:05:35.549Z,4.73
2018-09-01T04:08:02.778Z,4.93
2018-09-01T04:10:29.884Z,5.40
2018-09-01T04:12:57.615Z,4.47
2018-09-01T04:15:24.765Z,4.97
2018-09-01T04:17:51.906Z,4.60
2018-09-01T04:20:19.300Z,4.83
2018-09-01T04:22:46.475Z,4.60
2018-09-01T04:25:13.624Z,5.50
2018-09-01T04:27:40.826Z,4.20
2018-09-01T04:30:08.027Z,4.60
2018-09-01T04:32:35.194Z,5.20
2018-09-01T04:35:03.268Z,3.97
2018-09-01T04:37:30.485Z,4.00
2018-09-01T04:39:57.589Z,4.33
2018-09-01T04:42:24.789Z,4.10
2018-09-01T04:44:51.941Z,3.50
2018-09-01T04:47:19.145Z,5.40
2018-09-01T04:49:46.241Z,4.43
2018-09-01T04:52:13.377Z,4.30
2018-09-01T04:54:40.689Z,5.47
2018-09-01T04:57:07.786Z,3.93
2018-09-01T04:59:34.948Z,4.20
2018-09-01T05:02:02.304Z,3.67
2018-09-01T05:04:29.435Z,3.77
2018-09-01T05:06:56.621Z,3.97
2018-09-01T05:09:23.778Z,3.97
2018-09-01T05:11:50.905Z,3.17
2018-09-01T05:14:18.200Z,5.00
2018-09-01T05:16:45.433Z,3.27
2018-09-01T05:19:12.630Z,3.60
2018-09-01T05:21:39.756Z,3.90
2018-09-01T05:24:07.024Z,3.23
2018-09-01T05:26:34.173Z,3.27
2018-09-01T05:29:01.445Z,3.93
2018-09-01T05:31:28.579Z,3.43
2018-09-01T05:33:55.728Z,4.80
2018-09-01T05:36:23.081Z,3.83
2018-09-01T05:38:50.225Z,4.50
2018-09-01T05:41:17.367Z,4.10
2018-09-01T05:43:44.585Z,4.50
2018-09-01T05:46:11.694Z,4.83
2018-09-01T05:48:38.884Z,4.63
2018-09-01T05:51:06.117Z,4.73
2018-09-01T05:53:33.233Z,4.70
2018-09-01T05:56:00.385Z,5.00
2018-09-01T05:58:27.593Z,4.20
2018-09-01T06:00:54.761Z,4.50
2018-09-01T06:03:21.953Z,5.00
2018-09-01T06:05:49.132Z,4.67
2018-09-01T06:08:16.931Z,4.70
2018-09-01T06:10:44.267Z,4.93
2018-09-01T06:13:11.392Z,5.10
2018-09-01T06:15:38.545Z,3.87
2018-09-01T06:18:06.257Z,4.97
2018-09-01T06:20:33.496Z,4.10
2018-09-01T06:23:00.658Z,4.40
2018-09-01T06:25:27.928Z,4.10
2018-09-01T06:27:57.924Z,3.90
2018-09-01T06:30:28.759Z,4.40
2018-09-01T06:32:56.086Z,4.87
2018-09-01T06:35:23.181Z,3.67
2018-09-01T06:37:50.481Z,5.07
2018-09-01T06:40:17.588Z,3.80
2018-09-01T06:42:44.732Z,4.03
2018-09-01T06:45:11.905Z,4.57
2018-09-01T06:47:39.072Z,3.70
2018-09-01T06:50:06.384Z,3.57
2018-09-01T06:52:33.467Z,3.23
2018-09-01T06:55:00.611Z,3.07
2018-09-01T06:57:27.873Z,3.50
2018-09-01T06:59:54.960Z,5.27
2018-09-01T07:02:22.104Z,3.40
2018-09-01T07:04:49.368Z,2.97
2018-09-01T07:07:16.509Z,3.73
2018-09-01T07:09:43.710Z,3.70
2018-09-01T07:12:10.864Z,3.87
2018-09-01T07:14:37.977Z,2.97
2018-09-01T07:17:05.428Z,3.50
2018-09-01T07:19:32.585Z,3.60
2018-09-01T07:21:59.717Z,3.20
2018-09-01T07:24:26.917Z,3.30
2018-09-01T07:26:54.073Z,3.00
2018-09-01T07:29:21.264Z,3.20
2018-09-01T07:31:48.641Z,3.37
2018-09-01T07:34:15.752Z,3.20
2018-09-01T07:36:42.968Z,2.53
2018-09-01T07:39:10.120Z,3.60
2018-09-01T07:41:37.249Z,2.77
2018-09-01T07:44:04.809Z,3.80
2018-09-01T07:46:31.920Z,2.80
2018-09-01T07:48:59.200Z,3.67
2018-09-01T07:51:26.344Z,3.20
2018-09-01T07:53:53.479Z,2.90
2018-09-01T07:56:20.798Z,3.20
2018-09-01T07:58:48.032Z,2.63
2018-09-01T08:01:15.120Z,3.97
2018-09-01T08:03:42.297Z,2.83
2018-09-01T08:06:09.601Z,3.07
2018-09-01T08:08:36.720Z,2.57
2018-09-01T08:11:04.860Z,3.00
2018-09-01T08:13:32.084Z,3.60
2018-09-01T08:15:59.220Z,2.67
2018-09-01T08:18:26.388Z,2.10
2018-09-01T08:20:53.495Z,2.30
2018-09-01T08:23:20.628Z,3.70
2018-09-01T08:25:47.920Z,2.33
2018-09-01T08:28:15.116Z,2.83
2018-09-01T08:30:42.324Z,2.27
2018-09-01T08:33:09.566Z,2.47
2018-09-01T08:35:36.736Z,2.10
2018-09-01T08:38:03.960Z,2.50
2018-09-01T08:40:31.239Z,2.97
2018-09-01T08:42:58.416Z,2.73
2018-09-01T08:45:25.709Z,2.27
2018-09-01T08:47:52.773Z,3.07
2018-09-01T08:50:19.904Z,2.40
2018-09-01T08:52:48.346Z,2.73
2018-09-01T08:55:16.425Z,2.30
2018-09-01T08:57:43.578Z,2.27
2018-09-01T09:00:10.765Z,2.63
2018-09-01T09:02:37.951Z,2.37
2018-09-01T09:05:05.512Z,2.57
2018-09-01T09:07:32.704Z,2.93
2018-09-01T09:09:59.985Z,2.60
2018-09-01T09:12:27.112Z,3.30
2018-09-01T09:14:54.279Z,2.60
2018-09-01T09:17:21.584Z,2.57
2018-09-01T09:19:48.751Z,2.83
2018-09-01T09:22:16.098Z,2.60
2018-09-01T09:24:43.270Z,2.90
2018-09-01T09:27:10.383Z,2.40
2018-09-01T09:29:37.610Z,3.33
2018-09-01T09:32:04.780Z,2.50
2018-09-01T09:34:31.999Z,3.07
2018-09-01T09:36:59.140Z,2.67
2018-09-01T09:39:26.268Z,2.00
2018-09-01T09:41:53.601Z,2.20
2018-09-01T09:44:20.694Z,3.13
2018-09-01T09:46:47.845Z,2.87
2018-09-01T09:49:15.165Z,2.40
2018-09-01T09:51:42.339Z,2.60
2018-09-01T09:54:09.496Z,2.77
2018-09-01T09:56:36.643Z,2.80
2018-09-01T09:59:03.936Z,2.90
2018-09-01T10:01:41.493Z,2.13
2018-09-01T10:04:09.552Z,2.43
2018-09-01T10:06:37.447Z,2.60
2018-09-01T10:09:15.104Z,2.43
2018-09-01T10:11:42.880Z,2.80
2018-09-01T10:14:10.477Z,2.53
2018-09-01T10:16:37.674Z,2.37
2018-09-01T10:19:04.779Z,2.77
2018-09-01T10:21:31.961Z,3.23
2018-09-01T10:23:59.230Z,2.00
2018-09-01T10:26:26.362Z,3.30
2018-09-01T10:28:53.552Z,2.90
2018-09-01T10:31:20.774Z,1.77
2018-09-01T10:33:47.917Z,2.47
2018-09-01T10:36:15.241Z,2.73
2018-09-01T10:38:42.516Z,2.30
2018-09-01T10:41:09.659Z,2.30
2018-09-01T10:43:36.932Z,3.10
2018-09-01T10:46:04.476Z,2.03
2018-09-01T10:48:32.094Z,2.43
2018-09-01T10:50:59.380Z,2.40
2018-09-01T10:53:26.485Z,2.27
2018-09-01T10:55:53.610Z,2.00
2018-09-01T10:58:20.801Z,2.13
2018-09-01T11:00:47.912Z,2.13
2018-09-01T11:03:15.234Z,2.23
2018-09-01T11:05:42.497Z,2.87
2018-09-01T11:08:09.564Z,2.33
2018-09-01T11:10:36.784Z,2.60
2018-09-01T11:13:03.964Z,2.03
2018-09-01T11:15:31.096Z,2.67
2018-09-01T11:17:58.360Z,2.53
2018-09-01T11:20:25.642Z,2.60
2018-09-01T11:22:52.775Z,3.50
2018-09-01T11:25:20.068Z,2.60
2018-09-01T11:27:47.319Z,2.10
2018-09-01T11:30:14.372Z,2.77
2018-09-01T11:32:41.608Z,2.60
2018-09-01T11:35:09.151Z,2.20
2018-09-01T11:37:36.305Z,2.43
2018-09-01T11:40:04.465Z,2.50
2018-09-01T11:42:31.659Z,3.20
2018-09-01T11:44:59.005Z,2.97
2018-09-01T11:47:26.324Z,2.70
2018-09-01T11:49:53.469Z,2.03
2018-09-01T11:52:20.604Z,3.07
2018-09-01T11:54:47.755Z,2.10
2018-09-01T11:57:14.865Z,1.80
2018-09-01T11:59:42.024Z,3.23
2018-09-01T12:02:09.305Z,2.00
2018-09-01T12:04:36.443Z,2.60
2018-09-01T12:07:03.820Z,3.47
2018-09-01T12:09:30.988Z,1.97
2018-09-01T12:11:58.148Z,2.27
2018-09-01T12:14:25.357Z,2.70
2018-09-01T12:16:52.479Z,2.33
2018-09-01T12:19:19.665Z,2.00
2018-09-01T12:21:47.289Z,2.60
2018-09-01T12:24:14.480Z,2.30
2018-09-01T12:26:41.641Z,2.80
2018-09-01T12:29:08.763Z,2.73
2018-09-01T12:31:35.908Z,2.93
2018-09-01T12:34:03.177Z,3.17
2018-09-01T12:36:30.360Z,3.20
2018-09-01T12:38:57.553Z,3.73
2018-09-01T12:41:24.916Z,4.00
2018-09-01T12:43:52.000Z,3.77
2018-09-01T12:46:19.186Z,3.33
2018-09-01T12:48:46.377Z,3.30
2018-09-01T12:51:13.562Z,3.40
2018-09-01T12:53:40.778Z,3.00
2018-09-01T12:56:08.037Z,3.20
2018-09-01T12:58:35.225Z,2.87
2018-09-01T13:01:02.548Z,3.87
2018-09-01T13:03:29.644Z,3.00
2018-09-01T13:05:56.894Z,3.13
2018-09-01T13:08:24.184Z,2.93
2018-09-01T13:10:51.340Z,2.83
2018-09-01T13:13:18.452Z,3.23
2018-09-01T13:15:45.701Z,2.37
2018-09-01T13:18:12.851Z,2.63
2018-09-01T13:20:40.039Z,4.33
2018-09-01T13:23:07.250Z,3.43
2018-09-01T13:25:34.369Z,3.27
2018-09-01T13:28:01.551Z,2.77
2018-09-01T13:30:28.780Z,2.80
2018-09-01T13:32:55.960Z,3.53
2018-09-01T13:35:23.120Z,3.40
2018-09-01T13:37:50.329Z,4.00
2018-09-01T13:40:17.602Z,3.33
2018-09-01T13:42:44.754Z,2.90
2018-09-01T13:45:11.959Z,3.33
2018-09-01T13:47:39.187Z,2.80
2018-09-01T13:50:06.539Z,3.27
2018-09-01T13:52:33.672Z,3.57
2018-09-01T13:55:00.843Z,3.23
2018-09-01T13:57:28.081Z,3.40
2018-09-01T13:59:55.105Z,3.07
2018-09-01T14:02:22.510Z,3.10
2018-09-01T14:04:49.688Z,4.50
2018-09-01T14:07:16.815Z,3.37
2018-09-01T14:09:44.680Z,2.93
2018-09-01T14:12:11.776Z,3.30
2018-09-01T14:14:39.161Z,3.20
2018-09-01T14:17:06.104Z,3.60
2018-09-01T14:19:33.301Z,3.20
2018-09-01T14:22:00.534Z,3.00
2018-09-01T14:24:27.615Z,4.17
2018-09-01T14:26:54.776Z,3.37
2018-09-01T14:29:22.061Z,3.40
2018-09-01T14:31:49.259Z,3.70
2018-09-01T14:34:16.428Z,3.50
2018-09-01T14:36:43.645Z,3.63
2018-09-01T14:39:11.264Z,3.83
2018-09-01T14:41:38.454Z,4.03
2018-09-01T14:44:05.665Z,4.10
2018-09-01T14:46:32.839Z,4.13
2018-09-01T14:48:59.977Z,3.90
2018-09-01T14:51:27.100Z,4.40
2018-09-01T14:53:54.236Z,4.70
2018-09-01T14:56:21.513Z,4.03
2018-09-01T14:58:48.883Z,4.27
2018-09-01T15:01:16.063Z,4.77
2018-09-01T15:03:43.353Z,4.00
2018-09-01T15:06:10.592Z,4.33
2018-09-01T15:08:37.768Z,5.20
2018-09-01T15:11:05.027Z,4.77
2018-09-01T15:13:32.144Z,5.10
2018-09-01T15:15:59.308Z,4.70
2018-09-01T15:18:26.436Z,5.20
2018-09-01T15:20:53.614Z,4.93
2018-09-01T15:23:20.843Z,5.00
2018-09-01T15:25:48.024Z,4.10
2018-09-01T15:28:15.267Z,4.70
2018-09-01T15:30:42.492Z,12.70
2018-09-01T15:33:09.601Z,13.63
2018-09-01T15:35:36.837Z,12.10
2018-09-01T15:38:04.096Z,8.53
2018-09-01T15:40:31.338Z,4.83
2018-09-01T15:42:58.621Z,6.10
2018-09-01T15:45:25.748Z,5.33
2018-09-01T15:47:52.967Z,6.13
2018-09-01T15:50:20.274Z,5.90
2018-09-01T15:52:47.463Z,5.30
2018-09-01T15:55:14.603Z,5.17
2018-09-01T15:57:41.850Z,5.00
2018-09-01T16:00:09.052Z,5.47
2018-09-01T16:02:36.165Z,5.33
2018-09-01T16:05:03.769Z,5.40
2018-09-01T16:07:30.920Z,4.87
2018-09-01T16:09:58.080Z,5.83
2018-09-01T16:12:25.218Z,4.87
2018-09-01T16:14:52.331Z,4.90
2018-09-01T16:17:19.587Z,5.93
2018-09-01T16:19:46.869Z,4.80
2018-09-01T16:22:14.015Z,5.30
2018-09-01T16:24:41.366Z,4.97
2018-09-01T16:27:08.467Z,5.10
2018-09-01T16:29:35.624Z,5.17
2018-09-01T16:32:02.854Z,5.20
2018-09-01T16:34:30.016Z,5.37
2018-09-01T16:36:58.001Z,4.90
2018-09-01T16:39:25.231Z,5.33
2018-09-01T16:41:52.439Z,4.83
2018-09-01T16:44:19.724Z,5.37
2018-09-01T16:46:46.947Z,4.77
2018-09-01T16:49:14.102Z,4.43
2018-09-01T16:51:41.244Z,5.50
2018-09-01T16:54:08.389Z,4.90
2018-09-01T16:56:35.568Z,4.40
2018-09-01T16:59:02.902Z,4.40
2018-09-01T17:01:30.093Z,5.33
2018-09-01T17:03:57.181Z,4.60
2018-09-01T17:06:24.445Z,4.93
2018-09-01T17:08:51.583Z,3.70
2018-09-01T17:11:18.753Z,5.43
2018-09-01T17:13:46.631Z,5.10
2018-09-01T17:16:13.809Z,5.53
2018-09-01T17:18:41.145Z,4.33
2018-09-01T17:21:08.482Z,5.67
2018-09-01T17:23:35.696Z,4.63
2018-09-01T17:26:02.821Z,3.90
2018-09-01T17:28:30.112Z,4.20
2018-09-01T17:30:57.360Z,5.03
2018-09-01T17:33:24.669Z,4.10
2018-09-01T17:35:51.794Z,4.40
2018-09-01T17:38:18.938Z,4.27
2018-09-01T17:40:46.705Z,4.40
2018-09-01T17:43:13.903Z,5.37
2018-09-01T17:45:41.089Z,4.63
2018-09-01T17:48:08.412Z,4.17
2018-09-01T17:50:35.579Z,4.40
2018-09-01T17:53:02.723Z,5.10
2018-09-01T17:55:30.022Z,3.83
2018-09-01T17:57:57.138Z,4.70
2018-09-01T18:00:24.352Z,4.70
2018-09-01T18:02:51.561Z,4.03
2018-09-01T18:05:18.725Z,3.60
2018-09-01T18:07:46.070Z,4.20
2018-09-01T18:10:13.615Z,4.27
2018-09-01T18:12:40.876Z,4.30
2018-09-01T18:15:08.110Z,5.10
2018-09-01T18:17:35.283Z,4.97
2018-09-01T18:20:02.471Z,4.57
2018-09-01T18:22:29.608Z,4.00
2018-09-01T18:24:56.834Z,4.40
2018-09-01T18:27:23.985Z,3.83
2018-09-01T18:29:51.173Z,4.37
2018-09-01T18:32:18.301Z,4.10
2018-09-01T18:34:45.576Z,3.97
2018-09-01T18:37:13.025Z,4.87
2018-09-01T18:39:40.220Z,4.63
2018-09-01T18:42:07.514Z,4.70
2018-09-01T18:44:34.875Z,3.87
2018-09-01T18:47:02.089Z,4.70
2018-09-01T18:49:29.437Z,4.83
2018-09-01T18:51:56.601Z,4.20
2018-09-01T18:54:23.786Z,3.90
2018-09-01T18:56:50.921Z,4.63
2018-09-01T18:59:18.639Z,3.97
2018-09-01T19:01:45.748Z,4.30
2018-09-01T19:04:13.051Z,5.27
2018-09-01T19:06:40.584Z,4.47
2018-09-01T19:09:07.777Z,5.00
2018-09-01T19:11:36.028Z,4.73
2018-09-01T19:14:03.351Z,4.97
2018-09-01T19:16:31.128Z,5.27
2018-09-01T19:18:58.341Z,4.40
2018-09-01T19:21:25.596Z,4.50
2018-09-01T19:23:52.773Z,4.80
2018-09-01T19:26:19.924Z,4.30
2018-09-01T19:28:47.175Z,4.73
2018-09-01T19:31:15.054Z,4.60
2018-09-01T19:33:42.244Z,4.43
2018-09-01T19:36:09.371Z,3.67
2018-09-01T19:38:36.537Z,4.87
2018-09-01T19:41:03.692Z,4.60
2018-09-01T19:43:30.816Z,5.00
2018-09-01T19:45:57.977Z,5.20
2018-09-01T19:48:25.272Z,5.17
2018-09-01T19:50:52.414Z,4.77
2018-09-01T19:53:19.545Z,5.00
2018-09-01T19:55:46.753Z,5.30
2018-09-01T19:58:13.872Z,4.93
2018-09-01T20:00:41.185Z,6.03
2018-09-01T20:03:08.329Z,4.87
2018-09-01T20:05:35.506Z,5.43
2018-09-01T20:08:02.741Z,5.50
2018-09-01T20:10:29.901Z,4.53
2018-09-01T20:12:57.003Z,5.43
2018-09-01T20:15:24.281Z,5.83
2018-09-01T20:17:51.438Z,5.63
2018-09-01T20:20:18.578Z,7.60
2018-09-01T20:22:45.820Z,5.87
2018-09-01T20:25:13.103Z,7.50
2018-09-01T20:27:40.204Z,5.20
2018-09-01T20:30:07.468Z,5.07
2018-09-01T20:32:34.909Z,6.30
2018-09-01T20:35:07.841Z,5.43
2018-09-01T20:37:34.991Z,6.87
2018-09-01T20:40:02.369Z,6.27
2018-09-01T20:42:29.613Z,6.63
2018-09-01T20:44:56.777Z,6.20
2018-09-01T20:47:27.996Z,6.40
2018-09-01T20:49:55.149Z,6.63
2018-09-01T20:52:22.258Z,5.40
2018-09-01T20:54:49.451Z,6.83
2018-09-01T20:57:16.688Z,6.73
2018-09-01T20:59:44.422Z,6.73
2018-09-01T21:02:11.554Z,6.40
2018-09-01T21:04:38.888Z,6.17
2018-09-01T21:07:06.088Z,6.63
2018-09-01T21:09:33.315Z,5.50
2018-09-01T21:12:00.572Z,6.10
2018-09-01T21:14:27.736Z,6.37
2018-09-01T21:16:54.901Z,6.27
2018-09-01T21:19:22.170Z,6.57
2018-09-01T21:21:49.292Z,6.87
2018-09-01T21:24:16.421Z,6.50
2018-09-01T21:26:43.686Z,7.80
2018-09-01T21:29:10.823Z,7.27
2018-09-01T21:31:37.981Z,8.07
2018-09-01T21:34:05.592Z,7.33
2018-09-01T21:36:32.740Z,7.37
2018-09-01T21:38:59.896Z,7.40
2018-09-01T21:41:27.001Z,6.83
2018-09-01T21:43:54.152Z,7.07
2018-09-01T21:46:21.464Z,7.10
2018-09-01T21:48:48.746Z,6.77
2018-09-01T21:51:15.932Z,7.13
2018-09-01T21:53:43.146Z,6.37
2018-09-01T21:56:10.320Z,7.77
2018-09-01T21:58:37.566Z,5.70
2018-09-01T22:01:10.755Z,6.37
2018-09-01T22:03:43.633Z,7.00
2018-09-01T22:06:10.761Z,6.87
2018-09-01T22:08:37.969Z,6.43
2018-09-01T22:11:05.807Z,7.00
2018-09-01T22:13:32.933Z,6.00
2018-09-01T22:16:00.074Z,8.23
2018-09-01T22:18:27.298Z,7.20
2018-09-01T22:20:54.435Z,7.03
2018-09-01T22:23:21.672Z,8.00
2018-09-01T22:25:48.860Z,6.87
2018-09-01T22:28:15.988Z,7.80
2018-09-01T22:30:43.104Z,7.30
2018-09-01T22:33:10.348Z,8.13
2018-09-01T22:35:37.463Z,6.63
2018-09-01T22:38:04.668Z,6.33
2018-09-01T22:40:31.813Z,6.87
2018-09-01T22:42:58.955Z,6.63
2018-09-01T22:45:26.179Z,8.07
2018-09-01T22:47:53.337Z,7.33
2018-09-01T22:50:20.608Z,6.90
2018-09-01T22:52:47.864Z,7.70
2018-09-01T22:55:15.002Z,7.40
2018-09-01T22:57:42.286Z,7.33
2018-09-01T23:00:09.385Z,7.80
2018-09-01T23:02:36.528Z,7.57
2018-09-01T23:05:04.744Z,7.77
2018-09-01T23:07:31.889Z,5.97
2018-09-01T23:09:58.982Z,6.63
2018-09-01T23:12:26.198Z,7.50
2018-09-01T23:14:53.366Z,6.90
2018-09-01T23:17:20.478Z,7.70
2018-09-01T23:19:47.848Z,7.53
2018-09-01T23:22:14.968Z,6.77
2018-09-01T23:24:42.148Z,7.40
2018-09-01T23:27:09.299Z,6.80
2018-09-01T23:29:36.466Z,6.73
2018-09-01T23:32:03.697Z,6.47
2018-09-01T23:34:30.897Z,7.30
2018-09-01T23:36:58.034Z,6.30
2018-09-01T23:39:25.448Z,6.37
2018-09-01T23:41:52.612Z,7.63
2018-09-01T23:44:19.719Z,7.27
2018-09-01T23:46:47.795Z,7.10
2018-09-01T23:49:15.039Z,7.80
2018-09-01T23:51:42.193Z,6.90
2018-09-01T23:54:09.361Z,6.33
2018-09-01T23:56:36.481Z,7.13
2018-09-01T23:59:03.727Z,7.47
